Terminal Aerodrome Forecast
Issued by NWS Newport/Morehead City, NC

Current Version | Previous Version | Text Only | Print | Product List | Glossary Off
Versions: 1 2 3 4 5 6 7 8 9 10 11 12 13 14 15

000
FTUS42 KMHX 310557 CCA
TAFEWN
TAF COR
KEWN 310557Z 3106/0106 23003KT P6SM SKC
      TEMPO 3106/3110 00000KT 1SM BR SCT007
     FM311700 22013G23KT P6SM SKC=

USA.gov is the U.S. government's official web portal to all federal, state and local government web resources and services.